Time;durP1;ratioP1;P1;durP2;ratioP2;P2;SDS_P1;SDS_P2;PMS_P1;PMS_P2;Temp;Humidity;BMP_temperature;BMP_pressure;BME280_temperature;BME280_humidity;BME280_pressure;Samples;Min_cycle;Max_cycle;Signal;HPM_P1;HPM_P2
2023/04/04 00:00:29;;;;;;;12.93;4.97;;;;;;;6.98;100.00;101819.41;5000868;28;20041;-85
2023/04/04 00:02:55;;;;;;;9.57;4.63;;;;;;;7.00;100.00;101819.28;5000218;28;20079;-84
2023/04/04 00:05:20;;;;;;;12.23;5.55;;;;;;;7.03;100.00;101838.59;5016679;28;20480;-84
2023/04/04 00:07:47;;;;;;;11.52;5.60;;;;;;;7.07;100.00;101838.38;5017052;28;20041;-82
2023/04/04 00:10:13;;;;;;;10.45;5.05;;;;;;;7.05;100.00;101827.78;5032772;28;20033;-81
2023/04/04 00:12:42;;;;;;;17.73;5.95;;;;;;;7.07;100.00;101843.72;5000479;28;20099;-84
2023/04/04 00:15:11;;;;;;;10.10;5.05;;;;;;;7.04;100.00;101834.97;5000481;28;20494;-79
2023/04/04 00:17:36;;;;;;;12.20;4.78;;;;;;;7.04;100.00;101829.63;5032527;28;20029;-83
2023/04/04 00:20:03;;;;;;;13.05;5.32;;;;;;;7.11;100.00;101829.09;5000577;28;20064;-83
2023/04/04 00:22:29;;;;;;;13.30;5.07;;;;;;;7.05;100.00;101831.31;5032309;28;20037;-81
2023/04/04 00:24:55;;;;;;;15.10;5.97;;;;;;;7.04;100.00;101837.63;5016858;28;20087;-83
2023/04/04 00:27:20;;;;;;;12.43;5.88;;;;;;;7.05;100.00;101833.97;5000428;28;20041;-83
2023/04/04 00:29:49;;;;;;;18.33;6.72;;;;;;;7.09;100.00;101823.03;5015486;28;20443;-81
2023/04/04 00:32:15;;;;;;;19.70;5.10;;;;;;;7.10;100.00;101824.72;5032358;28;20042;-83
2023/04/04 00:34:57;;;;;;;9.45;5.45;;;;;;;7.11;100.00;101826.41;5016562;28;20125;-83
2023/04/04 00:37:26;;;;;;;10.73;5.32;;;;;;;7.07;100.00;101822.31;5048579;28;20029;-81
2023/04/04 00:39:52;;;;;;;10.98;5.40;;;;;;;7.04;100.00;101826.09;5033076;28;20139;-82
2023/04/04 00:42:18;;;;;;;10.32;4.43;;;;;;;7.00;100.00;101833.50;5031926;28;20492;-83
2023/04/04 00:44:43;;;;;;;13.05;4.90;;;;;;;6.93;100.00;101821.63;5000199;28;20072;-82
2023/04/04 00:47:09;;;;;;;7.82;3.95;;;;;;;6.93;100.00;101818.09;5000284;28;20107;-83
2023/04/04 00:49:36;;;;;;;13.65;5.20;;;;;;;6.88;100.00;101818.50;4999206;28;20037;-82
2023/04/04 00:52:05;;;;;;;6.60;3.72;;;;;;;6.86;100.00;101825.78;5016507;28;20386;-80
2023/04/04 00:54:31;;;;;;;11.70;4.72;;;;;;;6.83;100.00;101818.84;5016403;28;20463;-80
2023/04/04 00:57:00;;;;;;;18.98;4.75;;;;;;;6.80;100.00;101813.75;5015805;28;20523;-87
2023/04/04 00:59:27;;;;;;;5.13;2.70;;;;;;;6.77;100.00;101811.34;5000103;28;20411;-82
2023/04/04 01:01:52;;;;;;;9.07;3.88;;;;;;;6.76;100.00;101824.81;5015205;28;20040;-86
2023/04/04 01:04:20;;;;;;;7.45;4.07;;;;;;;6.77;100.00;101826.50;4999657;28;20038;-81
2023/04/04 01:06:49;;;;;;;4.40;2.53;;;;;;;6.75;100.00;101825.81;5031867;28;20040;-82
2023/04/04 01:09:15;;;;;;;11.60;3.78;;;;;;;6.75;100.00;101828.47;5011700;28;20042;-81
2023/04/04 01:11:44;;;;;;;5.43;3.28;;;;;;;6.74;100.00;101818.75;5016212;28;20030;-80
2023/04/04 01:14:10;;;;;;;11.40;4.50;;;;;;;6.75;100.00;101821.31;5015351;28;20495;-82
2023/04/04 01:16:36;;;;;;;11.13;4.28;;;;;;;6.76;100.00;101814.97;5015673;28;20037;-81
2023/04/04 01:19:02;;;;;;;15.30;4.50;;;;;;;6.75;100.00;101815.13;4998496;28;20068;-81
2023/04/04 01:21:28;;;;;;;18.30;4.93;;;;;;;6.75;100.00;101812.44;4983616;28;20036;-84
2023/04/04 01:23:58;;;;;;;9.25;3.88;;;;;;;6.55;100.00;101765.94;5032183;28;20040;-82
2023/04/04 01:26:25;;;;;;;6.43;3.45;;;;;;;6.70;100.00;101793.25;5030892;28;20037;-82
2023/04/04 01:28:52;;;;;;;8.93;4.07;;;;;;;6.51;100.00;101772.50;5016075;28;20061;-82
2023/04/04 01:31:22;;;;;;;4.03;2.47;;;;;;;6.54;100.00;101790.97;4998862;28;20037;-84
2023/04/04 01:34:20;;;;;;;7.07;4.03;;;;;;;6.60;100.00;101802.00;5032257;28;20048;-85
2023/04/04 01:36:49;;;;;;;6.70;3.67;;;;;;;6.58;100.00;101792.41;4998374;28;20044;-83
2023/04/04 01:39:29;;;;;;;6.20;2.97;;;;;;;6.58;100.00;101793.25;5031738;28;20042;-79
2023/04/04 01:41:56;;;;;;;3.90;1.58;;;;;;;6.56;100.00;101786.34;5015290;28;20057;-81
2023/04/04 01:44:22;;;;;;;6.53;3.85;;;;;;;6.52;100.00;101779.56;5032834;28;20025;-80
2023/04/04 01:46:57;;;;;;;8.35;3.70;;;;;;;6.55;100.00;101781.97;5019229;28;20033;-83
2023/04/04 01:49:23;;;;;;;11.43;3.15;;;;;;;6.54;100.00;101777.63;5003440;28;20029;-83
2023/04/04 01:51:50;;;;;;;5.18;1.98;;;;;;;6.57;100.00;101774.69;5002874;28;20033;-83
2023/04/04 01:54:17;;;;;;;9.98;3.47;;;;;;;6.54;100.00;101756.25;5035859;28;20064;-81
2023/04/04 01:56:45;;;;;;;2.67;2.00;;;;;;;6.57;100.00;101750.66;5019965;28;20499;-85
2023/04/04 01:59:11;;;;;;;10.68;2.88;;;;;;;6.50;100.00;101744.94;5018567;28;20060;-84
2023/04/04 02:01:39;;;;;;;5.30;3.20;;;;;;;6.62;100.00;101742.25;4986834;28;20453;-83
2023/04/04 02:04:06;;;;;;;10.88;3.85;;;;;;;6.65;100.00;101739.34;5002887;28;20121;-82
2023/04/04 02:06:32;;;;;;;7.03;2.88;;;;;;;6.63;100.00;101739.44;5019519;28;20099;-79
2023/04/04 02:08:58;;;;;;;11.15;3.97;;;;;;;6.67;100.00;101766.75;5034964;28;20116;-81
2023/04/04 02:11:24;;;;;;;11.35;4.68;;;;;;;6.68;100.00;101780.00;5019433;28;20116;-80
2023/04/04 02:13:50;;;;;;;4.35;1.83;;;;;;;6.71;100.00;101782.41;5002985;28;20056;-79
2023/04/04 02:16:19;;;;;;;5.65;3.75;;;;;;;6.70;100.00;101766.53;5001849;28;20053;-79
2023/04/04 02:18:44;;;;;;;6.97;3.63;;;;;;;6.73;100.00;101751.09;5002486;28;20415;-80
2023/04/04 02:21:10;;;;;;;14.40;4.45;;;;;;;6.75;100.00;101743.78;5002907;28;20076;-79
2023/04/04 02:23:38;;;;;;;11.95;4.07;;;;;;;6.74;100.00;101742.06;5018036;28;20399;-80
2023/04/04 02:26:04;;;;;;;4.32;2.20;;;;;;;6.78;100.00;101761.41;5035400;28;20033;-79
2023/04/04 02:28:30;;;;;;;4.43;3.00;;;;;;;6.81;100.00;101767.34;5002364;28;20427;-82
2023/04/04 02:31:01;;;;;;;4.63;2.75;;;;;;;6.85;100.00;101756.38;5001794;28;20037;-79
2023/04/04 02:33:27;;;;;;;5.35;3.45;;;;;;;6.89;100.00;101756.00;5035167;28;20388;-82
2023/04/04 02:35:57;;;;;;;8.50;3.30;;;;;;;6.86;100.00;101753.59;5002620;28;20119;-80
2023/04/04 02:38:22;;;;;;;9.77;2.45;;;;;;;6.68;100.00;101729.22;5002251;28;20121;-79
2023/04/04 02:40:48;;;;;;;6.53;3.53;;;;;;;6.86;100.00;101764.28;5034134;28;20026;-83
2023/04/04 02:43:14;;;;;;;13.95;4.80;;;;;;;6.87;100.00;101762.44;5002037;28;20033;-80
2023/04/04 02:45:43;;;;;;;6.82;3.58;;;;;;;6.86;100.00;101772.31;5034486;28;20033;-80
2023/04/04 02:48:11;;;;;;;1.70;1.52;;;;;;;6.83;100.00;101776.06;5002383;28;20120;-80
2023/04/04 02:50:37;;;;;;;9.63;4.68;;;;;;;6.78;100.00;101772.09;5001614;28;20060;-79
2023/04/04 02:53:03;;;;;;;4.10;2.70;;;;;;;6.78;100.00;101764.06;5002192;28;20503;-83
2023/04/04 02:55:29;;;;;;;5.07;3.10;;;;;;;6.80;100.00;101768.31;5001002;28;20061;-84
2023/04/04 02:57:55;;;;;;;9.48;4.75;;;;;;;6.78;100.00;101762.25;5017679;28;20030;-80
2023/04/04 03:00:21;;;;;;;5.57;2.53;;;;;;;6.80;100.00;101767.44;5001939;28;20053;-85
2023/04/04 03:02:54;;;;;;;3.75;2.75;;;;;;;6.86;100.00;101772.31;5002144;28;20037;-81
2023/04/04 03:05:20;;;;;;;4.13;2.42;;;;;;;6.80;100.00;101762.97;5017392;28;20108;-80
2023/04/04 03:07:46;;;;;;;6.65;3.72;;;;;;;6.85;100.00;101757.22;5018219;28;20038;-83
2023/04/04 03:10:12;;;;;;;8.02;4.93;;;;;;;6.89;100.00;101764.03;5018367;28;20116;-80
2023/04/04 03:12:37;;;;;;;17.80;5.75;;;;;;;6.92;100.00;101763.75;5017299;28;20067;-83
2023/04/04 03:15:04;;;;;;;5.80;3.40;;;;;;;6.94;100.00;101758.31;5018077;28;20029;-80
2023/04/04 03:17:33;;;;;;;4.80;2.40;;;;;;;6.94;100.00;101752.97;5017955;28;20479;-81
2023/04/04 03:19:59;;;;;;;15.88;6.10;;;;;;;6.95;100.00;101758.16;5000614;28;20088;-82
2023/04/04 03:22:24;;;;;;;10.88;5.35;;;;;;;6.97;100.00;101758.03;5001606;28;20041;-80
2023/04/04 03:24:51;;;;;;;13.50;5.43;;;;;;;6.96;100.00;101759.88;5001126;28;20083;-84
2023/04/04 03:27:17;;;;;;;11.52;5.57;;;;;;;6.93;100.00;101751.25;5017230;28;20139;-83
2023/04/04 03:29:45;;;;;;;20.77;8.07;;;;;;;6.87;100.00;101747.25;5001651;28;20055;-80
2023/04/04 03:32:30;;;;;;;9.48;6.50;;;;;;;6.77;100.00;101747.19;5018744;28;20033;-79
2023/04/04 03:34:56;;;;;;;13.02;6.10;;;;;;;6.77;100.00;101749.00;5033397;28;20075;-80
2023/04/04 03:37:22;;;;;;;15.13;6.00;;;;;;;6.73;100.00;101751.09;5050841;28;20045;-84
2023/04/04 03:39:47;;;;;;;12.82;6.95;;;;;;;6.67;100.00;101745.38;5001246;28;20037;-81
2023/04/04 03:42:13;;;;;;;9.73;5.85;;;;;;;6.59;100.00;101754.88;5001119;28;20040;-79
2023/04/04 03:44:42;;;;;;;8.25;5.85;;;;;;;6.54;100.00;101740.22;5000319;28;20026;-80
2023/04/04 03:47:07;;;;;;;12.82;6.43;;;;;;;6.53;100.00;101743.84;5001357;28;20103;-85
2023/04/04 03:49:33;;;;;;;9.70;5.50;;;;;;;6.51;100.00;101735.97;5001424;28;20096;-80
2023/04/04 03:52:02;;;;;;;13.52;7.32;;;;;;;6.51;100.00;101735.97;5034084;28;20037;-80
2023/04/04 03:54:30;;;;;;;15.25;7.15;;;;;;;6.51;100.00;101735.09;5000262;28;20048;-82
2023/04/04 03:56:56;;;;;;;11.48;6.07;;;;;;;6.43;100.00;101725.06;5002453;28;20041;-84
2023/04/04 03:59:22;;;;;;;13.30;7.45;;;;;;;6.54;100.00;101745.56;5001067;28;20188;-80
2023/04/04 04:01:48;;;;;;;13.30;6.95;;;;;;;6.51;100.00;101735.09;5001769;28;20037;-84
2023/04/04 04:04:16;;;;;;;12.95;6.63;;;;;;;6.53;100.00;101731.31;5001823;28;20079;-83
2023/04/04 04:06:48;;;;;;;6.38;4.90;;;;;;;6.54;100.00;101729.53;5000877;28;20041;-81
2023/04/04 04:09:14;;;;;;;10.80;6.47;;;;;;;6.58;100.00;101729.13;5018863;28;20029;-83
2023/04/04 04:11:40;;;;;;;12.75;7.15;;;;;;;6.59;100.00;101721.97;5001470;28;20041;-80
2023/04/04 04:14:05;;;;;;;13.98;5.68;;;;;;;6.59;100.00;101717.47;5017330;28;20036;-82
2023/04/04 04:16:34;;;;;;;11.85;6.35;;;;;;;6.58;100.00;101710.41;5000483;28;20033;-81
2023/04/04 04:19:00;;;;;;;7.70;4.75;;;;;;;6.59;100.00;101717.47;5033095;28;20121;-80
2023/04/04 04:21:26;;;;;;;13.32;7.25;;;;;;;6.60;100.00;101727.19;5000089;28;20029;-80
2023/04/04 04:23:54;;;;;;;12.45;5.72;;;;;;;6.58;100.00;101736.28;5015940;28;20033;-82
2023/04/04 04:26:20;;;;;;;12.73;6.32;;;;;;;6.53;100.00;101734.00;5000465;28;20030;-80
2023/04/04 04:28:47;;;;;;;17.90;7.47;;;;;;;6.50;100.00;101728.91;5032551;28;20380;-85
2023/04/04 04:31:12;;;;;;;13.30;6.25;;;;;;;6.50;100.00;101720.88;5016784;28;20029;-80
2023/04/04 04:33:40;;;;;;;10.80;6.78;;;;;;;6.50;100.00;101723.56;5000171;28;20029;-83
2023/04/04 04:36:11;;;;;;;7.13;4.20;;;;;;;6.54;100.00;101727.69;4999863;28;20034;-79
2023/04/04 04:38:38;;;;;;;12.70;7.13;;;;;;;6.58;100.00;101730.94;5033586;28;20506;-80
2023/04/04 04:41:03;;;;;;;14.20;5.72;;;;;;;6.53;100.00;101725.97;4999877;28;20127;-80
2023/04/04 04:43:29;;;;;;;11.88;6.50;;;;;;;6.53;100.00;101728.66;5032595;28;20388;-83
2023/04/04 04:45:54;;;;;;;13.02;5.53;;;;;;;6.52;100.00;101726.13;5032460;28;20065;-81
2023/04/04 04:48:23;;;;;;;12.90;6.28;;;;;;;6.35;100.00;101708.78;5016538;28;20061;-82
2023/04/04 04:50:48;;;;;;;13.63;7.63;;;;;;;6.54;100.00;101719.69;4999769;28;20387;-83
2023/04/04 04:53:14;;;;;;;9.70;5.03;;;;;;;6.58;100.00;101736.28;5016375;28;20040;-83
2023/04/04 04:55:45;;;;;;;9.43;5.90;;;;;;;6.59;100.00;101727.31;5017178;28;20030;-80
2023/04/04 04:58:16;;;;;;;16.17;7.65;;;;;;;6.60;100.00;101726.34;5016336;28;20038;-83
2023/04/04 05:00:44;;;;;;;14.77;7.07;;;;;;;6.59;100.00;101711.28;5016212;28;20029;-80
2023/04/04 05:03:12;;;;;;;12.15;5.95;;;;;;;6.53;100.00;101699.25;4998964;28;20044;-82
2023/04/04 05:05:41;;;;;;;12.18;6.07;;;;;;;6.66;100.00;101717.81;5000168;28;20114;-80
2023/04/04 05:08:10;;;;;;;10.70;7.15;;;;;;;6.65;100.00;101715.28;4983951;28;20033;-83
2023/04/04 05:10:41;;;;;;;14.15;6.13;;;;;;;6.55;100.00;101688.47;5016679;28;20487;-84
2023/04/04 05:13:09;;;;;;;12.48;6.97;;;;;;;6.65;100.00;101694.75;5000203;28;20043;-84
2023/04/04 05:15:35;;;;;;;7.13;4.88;;;;;;;6.65;100.00;101700.09;4999906;28;20599;-84
2023/04/04 05:18:04;;;;;;;15.18;6.93;;;;;;;6.69;100.00;101711.34;4999526;28;20044;-80
2023/04/04 05:20:30;;;;;;;15.20;8.48;;;;;;;6.70;100.00;101713.06;4999464;28;20040;-81
2023/04/04 05:22:57;;;;;;;17.75;7.28;;;;;;;6.70;100.00;101713.06;5016153;28;20045;-85
2023/04/04 05:25:22;;;;;;;12.27;6.75;;;;;;;6.70;100.00;101707.72;5015478;28;20025;-81
2023/04/04 05:27:48;;;;;;;8.30;5.13;;;;;;;6.68;100.00;101704.34;4999719;28;20036;-84
2023/04/04 05:30:15;;;;;;;8.60;5.32;;;;;;;6.70;100.00;101705.91;4999768;28;20478;-80
2023/04/04 05:32:40;;;;;;;12.40;6.25;;;;;;;6.69;100.00;101703.34;5031979;28;20034;-80
2023/04/04 05:35:06;;;;;;;18.52;7.63;;;;;;;6.65;100.00;101693.91;4999635;28;20029;-83
2023/04/04 05:37:32;;;;;;;16.80;8.23;;;;;;;6.68;100.00;101705.16;5032464;28;20036;-83
2023/04/04 05:39:58;;;;;;;8.02;4.10;;;;;;;6.66;100.00;101700.94;5032320;28;20042;-81
2023/04/04 05:42:23;;;;;;;14.18;5.47;;;;;;;6.68;100.00;101710.50;4999397;28;20120;-82
2023/04/04 05:44:49;;;;;;;6.20;4.15;;;;;;;6.73;100.00;101712.81;5015327;28;20034;-82
2023/04/04 05:47:17;;;;;;;16.95;8.00;;;;;;;6.77;100.00;101700.88;4999357;28;20037;-80
2023/04/04 05:49:45;;;;;;;8.38;5.32;;;;;;;6.78;100.00;101694.56;5015723;28;20029;-81
2023/04/04 05:52:11;;;;;;;13.25;5.57;;;;;;;6.78;100.00;101691.91;5015318;28;20076;-80
2023/04/04 05:54:36;;;;;;;6.55;4.07;;;;;;;6.78;100.00;101687.41;5031971;28;20044;-81
2023/04/04 05:57:05;;;;;;;25.33;10.05;;;;;;;6.77;100.00;101696.41;4999324;28;20029;-83
2023/04/04 05:59:30;;;;;;;9.45;5.18;;;;;;;6.74;100.00;101693.97;5031472;28;20021;-83
2023/04/04 06:02:06;;;;;;;4.53;3.25;;;;;;;6.73;100.00;101686.09;4999439;28;20087;-81
2023/04/04 06:04:47;;;;;;;12.45;7.18;;;;;;;6.76;100.00;101691.16;5016997;28;20112;-80
2023/04/04 06:07:13;;;;;;;21.85;8.63;;;;;;;6.71;100.00;101683.53;5015400;28;20460;-80
2023/04/04 06:09:40;;;;;;;15.75;8.07;;;;;;;6.72;100.00;101685.25;4998842;28;20063;-79
2023/04/04 06:12:08;;;;;;;11.52;6.57;;;;;;;6.68;100.00;101688.28;4999544;28;20128;-81
2023/04/04 06:14:35;;;;;;;10.80;6.85;;;;;;;6.67;100.00;101687.44;5015604;28;20095;-83
2023/04/04 06:17:01;;;;;;;14.85;7.53;;;;;;;6.66;100.00;101684.91;4998865;28;20029;-81
2023/04/04 06:19:27;;;;;;;15.48;6.88;;;;;;;6.63;100.00;101671.78;5014709;28;20478;-82
2023/04/04 06:21:54;;;;;;;16.90;7.35;;;;;;;6.65;100.00;101681.38;5015025;28;20483;-81
2023/04/04 06:24:19;;;;;;;20.80;7.55;;;;;;;6.69;100.00;101684.63;5015243;28;20029;-80
2023/04/04 06:26:50;;;;;;;20.40;7.63;;;;;;;6.73;100.00;101680.75;4999338;28;20041;-80
2023/04/04 06:29:17;;;;;;;18.30;7.72;;;;;;;6.80;100.00;101690.78;5015557;28;20033;-82
2023/04/04 06:31:43;;;;;;;21.23;6.93;;;;;;;6.90;100.00;101690.00;5001029;28;20033;-81
2023/04/04 06:34:09;;;;;;;15.40;7.85;;;;;;;6.96;100.00;101693.03;4986501;28;20136;-80
2023/04/04 06:36:34;;;;;;;21.25;8.38;;;;;;;7.09;100.00;101695.50;5018614;28;20120;-80
2023/04/04 06:39:00;;;;;;;14.85;7.07;;;;;;;7.16;100.00;101693.16;5018854;28;20029;-81
2023/04/04 06:41:27;;;;;;;15.35;6.45;;;;;;;7.17;100.00;101695.72;5051771;28;20088;-80
2023/04/04 06:43:53;;;;;;;16.95;8.32;;;;;;;7.24;100.00;101704.88;5001807;28;20029;-79
2023/04/04 06:46:18;;;;;;;15.10;7.13;;;;;;;7.31;100.00;101702.56;5001832;28;20021;-80
2023/04/04 06:48:44;;;;;;;12.60;7.20;;;;;;;7.41;100.00;101697.25;5001947;28;20057;-82
2023/04/04 06:51:20;;;;;;;20.15;9.18;;;;;;;7.58;100.00;101710.03;5001965;28;20025;-81
2023/04/04 06:53:49;;;;;;;14.82;6.25;;;;;;;7.61;100.00;101695.53;5001561;28;20038;-82
2023/04/04 06:56:20;;;;;;;15.80;8.70;;;;;;;7.72;100.00;101692.75;5002288;28;20030;-80
2023/04/04 06:58:49;;;;;;;24.77;10.32;;;;;;;7.85;100.00;101696.03;5034551;28;20025;-81
2023/04/04 07:01:15;;;;;;;11.75;5.55;;;;;;;7.92;100.00;101691.00;5018066;28;20026;-80
2023/04/04 07:03:44;;;;;;;17.60;7.97;;;;;;;8.07;100.00;101688.78;5018011;28;20468;-82
2023/04/04 07:06:10;;;;;;;11.65;6.80;;;;;;;8.12;100.00;101679.38;5035382;28;20468;-82
2023/04/04 07:08:36;;;;;;;13.13;7.05;;;;;;;8.27;100.00;101684.34;5017664;28;20033;-82
2023/04/04 07:11:11;;;;;;;15.00;8.60;;;;;;;8.40;100.00;101673.41;5017631;28;20539;-80
2023/04/04 07:13:36;;;;;;;16.10;7.18;;;;;;;8.53;100.00;101676.66;5034165;28;20606;-82
2023/04/04 07:16:02;;;;;;;16.33;7.80;;;;;;;8.68;100.00;101672.56;5001261;28;20144;-82
2023/04/04 07:18:28;;;;;;;13.00;6.45;;;;;;;8.90;100.00;101678.63;5033704;28;20104;-84
2023/04/04 07:20:53;;;;;;;13.25;6.15;;;;;;;9.10;100.00;101685.66;5017731;28;20491;-81
2023/04/04 07:23:20;;;;;;;8.95;5.50;;;;;;;9.25;100.00;101681.53;5033617;28;20029;-82
2023/04/04 07:25:46;;;;;;;13.05;5.93;;;;;;;9.50;100.00;101676.53;5034883;28;20025;-83
2023/04/04 07:28:11;;;;;;;10.55;4.68;;;;;;;9.67;100.00;101674.91;5034159;28;20033;-83
2023/04/04 07:30:37;;;;;;;16.05;7.15;;;;;;;9.74;100.00;101670.66;5001074;28;20638;-80
2023/04/04 07:33:03;;;;;;;11.77;7.40;;;;;;;9.90;100.00;101683.44;5033843;28;20113;-81
2023/04/04 07:35:29;;;;;;;8.00;4.05;;;;;;;10.23;100.00;101681.13;5017964;28;20120;-83
2023/04/04 07:37:55;;;;;;;20.85;8.05;;;;;;;10.69;100.00;101677.44;5017544;28;20349;-80
2023/04/04 07:40:20;;;;;;;11.00;6.65;;;;;;;10.65;100.00;101681.44;5000904;28;20044;-81
2023/04/04 07:42:53;;;;;;;14.02;5.53;;;;;;;10.51;100.00;101672.06;5016570;28;20049;-81
2023/04/04 07:45:21;;;;;;;16.33;6.32;;;;;;;10.46;100.00;101676.22;5017995;28;20120;-81
2023/04/04 07:47:47;;;;;;;13.52;5.38;;;;;;;10.10;100.00;101670.75;5017184;28;20033;-81
2023/04/04 07:50:13;;;;;;;12.35;5.78;;;;;;;9.82;100.00;101665.38;5033778;28;20033;-80
2023/04/04 07:52:39;;;;;;;11.23;4.30;;;;;;;9.65;100.00;101672.34;5033822;28;20460;-80
2023/04/04 07:55:06;;;;;;;22.65;5.97;;;;;;;9.58;100.00;101678.47;5033583;28;20132;-82
2023/04/04 07:57:32;;;;;;;9.70;3.88;;;;;;;9.50;100.00;101673.84;5001019;28;20112;-82
2023/04/04 07:59:58;;;;;;;7.45;4.53;;;;;;;9.50;100.00;101676.53;5001053;28;20486;-84
2023/04/04 08:02:24;;;;;;;17.60;6.63;;;;;;;9.56;100.00;101667.03;5017116;28;20029;-80
2023/04/04 08:04:50;;;;;;;14.70;6.47;;;;;;;9.76;100.00;101678.53;5000614;28;20440;-81
2023/04/04 08:07:16;;;;;;;13.82;6.07;;;;;;;9.95;100.00;101667.72;5017428;28;20119;-81
2023/04/04 08:09:42;;;;;;;15.35;5.05;;;;;;;9.99;100.00;101644.09;5034393;28;20460;-83
2023/04/04 08:12:07;;;;;;;9.80;5.32;;;;;;;10.42;100.00;101667.59;5033633;28;20033;-81
2023/04/04 08:14:33;;;;;;;10.80;4.95;;;;;;;10.97;100.00;101662.03;5017140;28;20025;-80
2023/04/04 08:17:00;;;;;;;10.88;5.90;;;;;;;11.13;100.00;101674.75;5017557;28;20030;-83
2023/04/04 08:19:26;;;;;;;10.13;5.25;;;;;;;11.12;100.00;101672.25;5017182;28;20036;-84
2023/04/04 08:21:52;;;;;;;16.92;5.85;;;;;;;10.98;100.00;101671.81;5016826;28;20030;-86
2023/04/04 08:24:18;;;;;;;7.78;4.93;;;;;;;10.81;100.00;101648.44;5000189;28;20464;-84
2023/04/04 08:26:44;;;;;;;17.63;8.60;;;;;;;10.77;100.00;101672.13;5032857;28;20037;-82
2023/04/04 08:29:09;;;;;;;19.55;8.85;;;;;;;10.82;100.00;101662.75;5034012;28;20041;-84
2023/04/04 08:31:35;;;;;;;5.78;3.47;;;;;;;11.20;98.17;101670.44;5016639;28;20026;-80
2023/04/04 08:34:01;;;;;;;12.10;5.20;;;;;;;11.47;97.34;101673.97;4999539;28;20124;-81
2023/04/04 08:36:30;;;;;;;6.72;3.78;;;;;;;11.71;94.19;101665.19;5033972;28;20167;-84
2023/04/04 08:38:55;;;;;;;8.88;4.30;;;;;;;11.88;92.59;101652.66;5000081;28;20034;-82
2023/04/04 08:41:21;;;;;;;5.78;4.32;;;;;;;12.03;90.85;101669.06;5033403;28;20032;-77
2023/04/04 08:43:53;;;;;;;9.43;3.80;;;;;;;12.01;89.50;101673.75;5015806;28;20049;-82
2023/04/04 08:46:27;;;;;;;5.40;3.05;;;;;;;11.53;91.56;101661.72;5017536;28;20399;-82
2023/04/04 08:48:58;;;;;;;5.97;3.03;;;;;;;11.65;90.42;101673.94;5031877;28;20041;-82
2023/04/04 08:51:25;;;;;;;4.65;3.28;;;;;;;11.66;89.21;101664.81;5015619;28;20544;-78
2023/04/04 08:53:51;;;;;;;5.53;3.40;;;;;;;12.25;88.06;101673.88;5015079;28;20401;-78
2023/04/04 08:56:16;;;;;;;6.78;4.55;;;;;;;12.77;85.82;101676.28;5033383;28;20491;-78
2023/04/04 08:58:42;;;;;;;7.13;4.10;;;;;;;14.08;78.92;101676.06;5032594;28;20475;-78
2023/04/04 09:01:07;;;;;;;8.90;5.07;;;;;;;15.43;71.72;101681.00;5032297;28;20037;-79
2023/04/04 09:03:35;;;;;;;6.57;2.80;;;;;;;15.48;67.85;101675.84;5015930;28;20040;-77
2023/04/04 09:06:03;;;;;;;4.45;3.45;;;;;;;16.53;61.88;101663.84;5000126;28;20096;-78
2023/04/04 09:08:29;;;;;;;7.68;3.00;;;;;;;15.95;63.68;101669.22;5032053;28;20033;-78
2023/04/04 09:10:54;;;;;;;9.45;3.60;;;;;;;16.09;63.74;101664.81;5033451;28;20109;-78
2023/04/04 09:13:20;;;;;;;6.65;3.15;;;;;;;15.37;65.33;101671.75;5032455;28;20080;-77
2023/04/04 09:15:52;;;;;;;3.72;2.95;;;;;;;15.46;65.71;101663.53;5032520;28;20037;-78
2023/04/04 09:18:18;;;;;;;5.80;3.30;;;;;;;14.91;65.69;101650.16;4999105;28;20045;-80
2023/04/04 09:20:45;;;;;;;9.50;3.90;;;;;;;15.47;65.66;101643.50;5015929;28;20025;-81
2023/04/04 09:23:22;;;;;;;7.47;3.67;;;;;;;17.16;58.93;101655.88;5031398;28;20053;-82
2023/04/04 09:25:53;;;;;;;6.90;3.90;;;;;;;15.83;62.08;101655.31;5016573;28;20037;-83
2023/04/04 09:28:20;;;;;;;10.85;3.92;;;;;;;15.51;62.32;101650.25;4999014;28;20403;-82
2023/04/04 09:30:50;;;;;;;5.93;3.40;;;;;;;15.31;64.74;101667.03;5015735;28;20032;-83
2023/04/04 09:33:17;;;;;;;7.40;2.92;;;;;;;15.09;65.84;101659.81;5015984;28;20044;-79
2023/04/04 09:35:46;;;;;;;4.47;3.65;;;;;;;15.70;63.28;101651.59;5015856;28;20044;-78
2023/04/04 09:38:13;;;;;;;10.00;3.83;;;;;;;17.90;57.30;101652.59;5015634;28;20488;-83
2023/04/04 09:40:40;;;;;;;7.68;4.65;;;;;;;18.20;55.19;101644.09;5015748;28;20044;-77
2023/04/04 09:43:07;;;;;;;8.82;3.47;;;;;;;19.03;51.60;101632.94;5031761;28;20036;-78
2023/04/04 09:45:34;;;;;;;6.85;3.03;;;;;;;18.41;51.66;101646.66;4999240;28;20400;-77
2023/04/04 09:48:02;;;;;;;6.18;2.60;;;;;;;17.19;54.51;101622.03;5014988;28;20455;-82
2023/04/04 09:50:29;;;;;;;4.10;3.42;;;;;;;16.90;56.03;101646.47;5013859;28;20119;-78
2023/04/04 09:52:59;;;;;;;6.53;3.03;;;;;;;16.77;56.39;101640.03;5013674;28;20033;-81
2023/04/04 09:55:33;;;;;;;8.30;3.92;;;;;;;18.21;52.58;101632.19;5015461;28;20037;-76
2023/04/04 09:58:01;;;;;;;;;;;;;;;17.36;54.84;101645.16;5031815;28;20484;-85
2023/04/04 10:00:29;;;;;;;8.82;3.65;;;;;;;17.08;56.20;101631.56;5048276;28;20263;-87
2023/04/04 10:02:57;;;;;;;9.98;3.40;;;;;;;17.03;54.79;101624.00;5016834;28;20053;-81
2023/04/04 10:05:23;;;;;;;5.68;3.25;;;;;;;16.44;57.94;101643.28;5017762;28;20036;-89
2023/04/04 10:07:52;;;;;;;11.35;4.20;;;;;;;15.95;61.14;101643.97;5035559;28;20036;-88
2023/04/04 10:10:18;;;;;;;10.82;4.68;;;;;;;17.48;58.53;101631.81;5020156;28;20502;-82
2023/04/04 10:12:45;;;;;;;6.25;3.63;;;;;;;17.32;55.09;101614.78;5019052;28;20026;-82
2023/04/04 10:15:11;;;;;;;6.45;3.22;;;;;;;17.11;55.13;101632.00;5035778;28;20026;-84
2023/04/04 10:17:41;;;;;;;2.67;2.15;;;;;;;15.95;59.77;101623.09;5035618;28;20040;-85
2023/04/04 10:20:08;;;;;;;5.22;2.90;;;;;;;15.23;62.66;101621.06;5019309;28;20471;-90
2023/04/04 10:22:35;;;;;;;8.40;3.50;;;;;;;15.05;65.26;101618.69;5019431;28;20466;-86
2023/04/04 10:25:02;;;;;;;10.20;3.58;;;;;;;14.65;68.14;101625.31;5035200;28;20025;-82
2023/04/04 10:27:28;;;;;;;11.15;3.60;;;;;;;14.28;68.60;101616.09;5018763;28;20034;-92
2023/04/04 10:29:56;;;;;;;11.38;6.40;;;;;;;14.02;71.44;101622.66;5036369;28;20033;-90
2023/04/04 10:32:28;;;;;;;3.15;2.40;;;;;;;13.99;70.99;101622.19;5035475;28;20083;-88
2023/04/04 10:35:09;;;;;;;8.45;2.85;;;;;;;13.94;70.97;101614.59;5019250;28;20190;-91
2023/04/04 10:37:53;;;;;;;5.18;2.70;;;;;;;14.47;70.38;101612.06;5020187;28;20025;-90
2023/04/04 10:40:21;;;;;;;7.63;2.90;;;;;;;14.80;67.67;101603.72;5018286;28;20075;-86
2023/04/04 10:42:48;;;;;;;5.32;3.50;;;;;;;15.28;67.94;101601.56;5017987;28;20105;-86
2023/04/04 10:45:18;;;;;;;5.38;3.30;;;;;;;15.63;66.21;101593.69;5018982;28;20056;-81
2023/04/04 10:47:44;;;;;;;9.05;3.45;;;;;;;15.95;63.59;101587.00;5003716;28;20073;-84
2023/04/04 10:50:11;;;;;;;7.25;3.20;;;;;;;15.98;62.60;101598.34;5033875;28;20029;-82
2023/04/04 10:52:39;;;;;;;8.50;2.95;;;;;;;15.98;62.57;101586.63;5033678;28;20049;-83
2023/04/04 10:55:07;;;;;;;7.82;3.15;;;;;;;16.13;62.71;101592.84;5018062;28;20030;-84
2023/04/04 10:57:39;;;;;;;8.45;4.25;;;;;;;15.96;62.37;101591.44;5002008;28;20143;-82
2023/04/04 11:00:09;;;;;;;5.97;2.90;;;;;;;15.66;62.70;101587.88;5002096;28;20041;-81
2023/04/04 11:02:54;;;;;;;4.88;2.90;;;;;;;15.57;64.94;101573.59;5018592;28;20056;-80
2023/04/04 11:05:21;;;;;;;9.35;4.57;;;;;;;16.48;64.06;101574.84;5018297;28;20227;-82
2023/04/04 11:07:52;;;;;;;5.88;3.95;;;;;;;17.40;60.50;101537.69;5034733;28;20132;-78
2023/04/04 11:10:29;;;;;;;5.65;3.20;;;;;;;19.52;53.15;101552.50;5002814;28;20132;-80
2023/04/04 11:13:03;;;;;;;7.45;3.85;;;;;;;19.84;49.60;101563.50;5034151;28;20480;-83
2023/04/04 11:15:47;;;;;;;5.97;2.90;;;;;;;19.62;49.34;101558.31;5018124;28;20025;-78
2023/04/04 11:18:17;;;;;;;6.68;3.28;;;;;;;19.55;50.53;101552.06;5017517;28;20051;-83
2023/04/04 11:20:44;;;;;;;11.88;5.15;;;;;;;18.87;51.34;101557.91;5034165;28;20025;-80
2023/04/04 11:23:19;;;;;;;4.95;2.42;;;;;;;18.61;52.46;101583.25;5018120;28;20052;-77